Time;durP1;ratioP1;P1;durP2;ratioP2;P2;SDS_P1;SDS_P2;PMS_P1;PMS_P2;Temp;Humidity;BMP_temperature;BMP_pressure;BME280_temperature;BME280_humidity;BME280_pressure;Samples;Min_cycle;Max_cycle;Signal;HPM_P1;HPM_P2
2021/12/04 00:01:48;;;;;;;1.90;0.85;;;;;;;;;;5063042;28;20029;-78
2021/12/04 00:04:37;;;;;;;1.00;0.57;;;;;;;;;;5085958;28;20522;-78
2021/12/04 00:07:24;;;;;;;2.50;0.75;;;;;;;;;;5084445;28;20044;-78
2021/12/04 00:10:16;;;;;;;2.47;0.70;;;;;;;;;;5091341;28;20028;-78
2021/12/04 00:13:03;;;;;;;1.02;0.60;;;;;;;;;;5089385;28;20091;-78
2021/12/04 00:15:50;;;;;;;1.13;0.60;;;;;;;;;;5079989;28;20037;-78
2021/12/04 00:18:36;;;;;;;0.93;0.60;;;;;;;;;;5090684;28;20043;-78
2021/12/04 00:21:23;;;;;;;1.02;0.60;;;;;;;;;;5089241;28;20032;-78
2021/12/04 00:24:10;;;;;;;1.23;0.70;;;;;;;;;;5078557;28;20043;-78
2021/12/04 00:26:57;;;;;;;1.50;0.68;;;;;;;;;;5082560;28;20033;-78
2021/12/04 00:29:44;;;;;;;1.42;0.60;;;;;;;;;;5077188;28;20091;-78
2021/12/04 00:32:35;;;;;;;0.65;0.43;;;;;;;;;;5091521;28;20044;-78
2021/12/04 00:50:29;;;;;;;1.73;0.70;;;;;;;;;;5087127;28;20515;-77
2021/12/04 00:53:16;;;;;;;1.10;0.70;;;;;;;;;;5060270;28;20037;-78
2021/12/04 00:56:02;;;;;;;1.85;0.80;;;;;;;;;;5091439;28;20035;-78
2021/12/04 00:58:49;;;;;;;1.40;0.60;;;;;;;;;;5097113;28;20036;-79
2021/12/04 01:01:40;;;;;;;1.10;0.60;;;;;;;;;;5082962;28;20032;-78
2021/12/04 01:04:27;;;;;;;1.35;0.70;;;;;;;;;;5089199;28;20103;-78
2021/12/04 01:07:14;;;;;;;1.15;0.65;;;;;;;;;;5089895;28;20036;-79
2021/12/04 01:10:01;;;;;;;1.85;0.80;;;;;;;;;;5089093;28;20059;-79
2021/12/04 01:12:49;;;;;;;2.15;0.77;;;;;;;;;;5088957;28;20036;-79
2021/12/04 01:15:36;;;;;;;1.85;0.70;;;;;;;;;;5089933;28;20032;-78
2021/12/04 01:18:23;;;;;;;1.33;0.57;;;;;;;;;;5096508;28;20034;-77
2021/12/04 01:21:10;;;;;;;2.33;0.75;;;;;;;;;;5097335;28;20028;-79
2021/12/04 01:23:56;;;;;;;2.53;0.75;;;;;;;;;;5080890;28;20025;-78
2021/12/04 01:26:43;;;;;;;1.30;0.82;;;;;;;;;;5093197;28;20050;-79
2021/12/04 01:29:30;;;;;;;1.50;0.70;;;;;;;;;;5096088;28;20052;-77
2021/12/04 01:32:16;;;;;;;1.75;0.70;;;;;;;;;;5085107;28;20043;-78
2021/12/04 01:35:04;;;;;;;2.10;0.70;;;;;;;;;;5064957;28;20392;-78
2021/12/04 01:37:50;;;;;;;1.25;0.57;;;;;;;;;;5090454;28;20032;-78
2021/12/04 01:40:37;;;;;;;2.83;0.60;;;;;;;;;;5078529;28;20043;-78
2021/12/04 01:43:24;;;;;;;1.60;0.47;;;;;;;;;;5087133;28;20540;-77
2021/12/04 01:46:10;;;;;;;2.47;0.70;;;;;;;;;;5092611;28;20031;-78
2021/12/04 01:48:57;;;;;;;1.70;0.60;;;;;;;;;;5086084;28;20048;-77
2021/12/04 01:51:44;;;;;;;1.70;0.75;;;;;;;;;;5086437;28;20462;-77
2021/12/04 01:54:31;;;;;;;1.95;0.60;;;;;;;;;;5094090;28;20044;-77
2021/12/04 01:57:18;;;;;;;1.73;0.80;;;;;;;;;;5094922;28;20569;-78
2021/12/04 02:00:06;;;;;;;1.02;0.60;;;;;;;;;;5096246;28;20037;-77
2021/12/04 02:02:53;;;;;;;2.42;0.60;;;;;;;;;;5076528;28;20024;-78
2021/12/04 02:05:41;;;;;;;1.42;0.50;;;;;;;;;;5090212;28;20469;-78
2021/12/04 02:08:27;;;;;;;1.48;0.85;;;;;;;;;;5086897;28;20024;-78
2021/12/04 02:11:14;;;;;;;2.45;0.68;;;;;;;;;;5074806;28;20047;-78
2021/12/04 02:14:01;;;;;;;2.85;0.73;;;;;;;;;;5080077;28;20044;-78
2021/12/04 02:16:49;;;;;;;1.95;0.77;;;;;;;;;;5085075;28;20024;-78
2021/12/04 02:19:36;;;;;;;1.83;0.60;;;;;;;;;;5093897;28;20055;-78
2021/12/04 02:22:23;;;;;;;1.42;0.73;;;;;;;;;;5089475;28;20471;-77
2021/12/04 02:25:09;;;;;;;1.30;0.40;;;;;;;;;;5091234;28;20040;-78
2021/12/04 02:27:57;;;;;;;1.98;0.60;;;;;;;;;;5094637;28;20032;-78
2021/12/04 02:30:44;;;;;;;1.30;0.57;;;;;;;;;;5091957;28;20060;-77
2021/12/04 02:33:31;;;;;;;1.38;0.50;;;;;;;;;;5089734;28;20032;-77
2021/12/04 02:36:18;;;;;;;1.17;0.50;;;;;;;;;;5084740;28;20021;-78
2021/12/04 02:39:06;;;;;;;0.82;0.40;;;;;;;;;;5095837;28;20028;-77
2021/12/04 02:41:54;;;;;;;1.13;0.70;;;;;;;;;;5092777;28;20035;-78
2021/12/04 02:44:41;;;;;;;1.63;0.68;;;;;;;;;;5070738;28;20035;-78
2021/12/04 02:47:28;;;;;;;1.85;0.75;;;;;;;;;;5086251;28;20062;-78
2021/12/04 02:50:17;;;;;;;1.40;0.35;;;;;;;;;;5088988;28;20024;-78
2021/12/04 02:53:03;;;;;;;1.30;0.40;;;;;;;;;;5092047;28;20066;-77
2021/12/04 02:55:52;;;;;;;1.98;0.63;;;;;;;;;;5081321;28;20036;-77
2021/12/04 02:58:39;;;;;;;1.00;0.43;;;;;;;;;;5083982;28;20038;-79
2021/12/04 03:01:26;;;;;;;2.05;0.70;;;;;;;;;;5077147;28;20032;-77
2021/12/04 03:04:13;;;;;;;2.17;0.63;;;;;;;;;;5091646;28;20035;-77
2021/12/04 03:07:00;;;;;;;3.15;0.70;;;;;;;;;;5083407;28;20420;-78
2021/12/04 03:09:47;;;;;;;1.35;0.70;;;;;;;;;;5080417;28;20502;-77
2021/12/04 03:12:34;;;;;;;2.92;0.70;;;;;;;;;;5092574;28;20479;-77
2021/12/04 03:15:21;;;;;;;1.92;0.73;;;;;;;;;;5081269;28;20030;-78
2021/12/04 03:18:08;;;;;;;1.50;0.50;;;;;;;;;;5091219;28;20035;-78
2021/12/04 03:20:56;;;;;;;1.73;0.50;;;;;;;;;;5091809;28;20667;-78
2021/12/04 03:23:58;;;;;;;1.83;0.65;;;;;;;;;;5086473;28;20143;-78
2021/12/04 03:26:47;;;;;;;0.98;0.50;;;;;;;;;;5090405;28;20039;-77
2021/12/04 03:29:38;;;;;;;1.73;0.52;;;;;;;;;;5075135;28;20035;-77
2021/12/04 03:40:01;;;;;;;1.25;0.50;;;;;;;;;;5093140;28;20032;-77
2021/12/04 03:41:35;;;;;;;1.33;0.60;;;;;;;;;;5092308;28;20403;-78
2021/12/04 03:44:22;;;;;;;2.40;0.52;;;;;;;;;;5091911;28;20039;-78
2021/12/04 03:47:10;;;;;;;2.65;0.55;;;;;;;;;;5087331;28;20039;-79
2021/12/04 03:49:57;;;;;;;2.22;0.60;;;;;;;;;;5083455;28;20471;-78
2021/12/04 03:52:43;;;;;;;2.92;0.70;;;;;;;;;;5091201;28;20059;-79
2021/12/04 03:55:30;;;;;;;1.38;0.80;;;;;;;;;;5087546;28;20028;-78
2021/12/04 03:58:18;;;;;;;2.47;0.75;;;;;;;;;;5082638;28;20024;-77
2021/12/04 04:01:04;;;;;;;1.58;0.50;;;;;;;;;;5091052;28;20028;-78
2021/12/04 04:03:51;;;;;;;2.22;0.70;;;;;;;;;;5090513;28;20030;-77
2021/12/04 04:06:38;;;;;;;1.65;0.75;;;;;;;;;;5093075;28;20036;-77
2021/12/04 04:09:24;;;;;;;0.85;0.43;;;;;;;;;;5087568;28;20041;-78
2021/12/04 04:12:11;;;;;;;1.45;0.50;;;;;;;;;;5083535;28;20050;-78
2021/12/04 04:14:58;;;;;;;1.52;0.52;;;;;;;;;;5091522;28;20483;-79
2021/12/04 04:17:44;;;;;;;1.40;0.50;;;;;;;;;;5093333;28;20046;-78
2021/12/04 04:20:32;;;;;;;2.40;0.50;;;;;;;;;;5091267;28;20140;-78
2021/12/04 04:23:18;;;;;;;1.35;0.52;;;;;;;;;;5090767;28;20087;-78
2021/12/04 04:26:05;;;;;;;3.67;0.50;;;;;;;;;;5065605;28;20399;-78
2021/12/04 04:28:52;;;;;;;2.25;0.75;;;;;;;;;;5086358;28;20043;-78
2021/12/04 04:31:47;;;;;;;2.05;0.68;;;;;;;;;;5071388;28;20052;-79
2021/12/04 04:34:36;;;;;;;2.40;0.52;;;;;;;;;;5083774;28;20036;-78
2021/12/04 04:37:33;;;;;;;2.42;0.68;;;;;;;;;;5084811;28;20387;-78
2021/12/04 05:13:48;;;;;;;2.15;0.70;;;;;;;;;;5082834;28;20028;-78
2021/12/04 05:16:50;;;;;;;1.83;0.50;;;;;;;;;;5091021;28;20074;-78
2021/12/04 05:22:26;;;;;;;1.40;0.50;;;;;;;;;;5081103;28;20031;-78
2021/12/04 05:25:13;;;;;;;2.45;0.80;;;;;;;;;;5083988;28;20036;-78
2021/12/04 05:27:59;;;;;;;1.77;0.60;;;;;;;;;;5090672;28;20040;-79
2021/12/04 05:30:46;;;;;;;2.45;0.80;;;;;;;;;;5080174;28;20044;-78
2021/12/04 05:33:34;;;;;;;2.67;0.90;;;;;;;;;;5085673;28;20063;-78
2021/12/04 05:36:20;;;;;;;1.35;0.52;;;;;;;;;;5084655;28;20016;-78
2021/12/04 05:39:07;;;;;;;2.55;0.40;;;;;;;;;;5087396;28;20046;-78
2021/12/04 05:41:54;;;;;;;2.65;0.50;;;;;;;;;;5075817;28;20333;-79
2021/12/04 05:44:42;;;;;;;1.63;0.60;;;;;;;;;;5084713;28;20032;-79
2021/12/04 05:47:36;;;;;;;1.27;0.47;;;;;;;;;;5074169;28;20035;-77
2021/12/04 05:50:56;;;;;;;1.80;0.70;;;;;;;;;;5075488;28;20024;-77
2021/12/04 05:53:56;;;;;;;2.03;0.57;;;;;;;;;;5086129;28;20517;-78
2021/12/04 05:56:42;;;;;;;1.95;0.50;;;;;;;;;;5079186;28;20040;-78
2021/12/04 05:59:29;;;;;;;2.67;0.57;;;;;;;;;;5090717;28;20391;-78
2021/12/04 06:02:17;;;;;;;0.95;0.43;;;;;;;;;;5089676;28;20038;-78
2021/12/04 06:05:04;;;;;;;1.05;0.40;;;;;;;;;;5081624;28;20787;-77
2021/12/04 06:07:50;;;;;;;1.80;0.60;;;;;;;;;;5079016;28;20601;-78
2021/12/04 06:10:37;;;;;;;2.40;0.50;;;;;;;;;;5070704;28;20055;-78
2021/12/04 06:13:24;;;;;;;0.95;0.65;;;;;;;;;;5094297;28;20052;-78
2021/12/04 06:16:11;;;;;;;2.17;0.60;;;;;;;;;;5101287;28;20038;-78
2021/12/04 06:19:05;;;;;;;0.57;0.40;;;;;;;;;;5106809;28;20209;-78
2021/12/04 06:24:57;;;;;;;3.20;0.82;;;;;;;;;;5085858;28;20040;-78
2021/12/04 06:27:44;;;;;;;1.52;0.60;;;;;;;;;;5083773;28;20036;-78
2021/12/04 06:30:35;;;;;;;3.15;0.70;;;;;;;;;;5091449;28;20044;-78
2021/12/04 06:33:22;;;;;;;1.42;0.50;;;;;;;;;;5094157;28;20037;-78
2021/12/04 06:36:09;;;;;;;1.85;0.55;;;;;;;;;;5084045;28;20038;-78
2021/12/04 06:38:56;;;;;;;0.85;0.43;;;;;;;;;;5092461;28;20038;-78
2021/12/04 06:41:42;;;;;;;2.15;0.63;;;;;;;;;;5090821;28;20038;-78
2021/12/04 06:44:29;;;;;;;1.25;0.60;;;;;;;;;;5083356;28;20483;-78
2021/12/04 06:47:16;;;;;;;1.42;0.50;;;;;;;;;;5093258;28;20505;-78
2021/12/04 06:50:08;;;;;;;1.60;0.60;;;;;;;;;;5091164;28;20028;-78
2021/12/04 06:52:57;;;;;;;1.88;0.50;;;;;;;;;;5093525;28;20411;-79
2021/12/04 06:55:48;;;;;;;1.23;0.60;;;;;;;;;;5068461;28;20038;-78
2021/12/04 06:58:36;;;;;;;0.73;0.32;;;;;;;;;;5078144;28;20369;-78
2021/12/04 07:01:22;;;;;;;0.82;0.40;;;;;;;;;;5093614;28;20043;-78
2021/12/04 07:04:10;;;;;;;0.90;0.40;;;;;;;;;;5089754;28;20042;-78
2021/12/04 07:06:56;;;;;;;3.35;0.80;;;;;;;;;;5077365;28;20040;-78
2021/12/04 07:09:43;;;;;;;1.77;0.45;;;;;;;;;;5081808;28;20488;-78
2021/12/04 07:12:30;;;;;;;0.70;0.40;;;;;;;;;;5092695;28;20059;-78
2021/12/04 07:15:17;;;;;;;1.27;0.50;;;;;;;;;;5087509;28;20446;-78
2021/12/04 07:18:04;;;;;;;1.00;0.40;;;;;;;;;;5084660;28;20028;-78
2021/12/04 07:20:50;;;;;;;1.08;0.45;;;;;;;;;;5090135;28;20031;-78
2021/12/04 07:23:38;;;;;;;0.95;0.43;;;;;;;;;;5070173;28;20433;-77
2021/12/04 07:26:25;;;;;;;2.35;0.63;;;;;;;;;;5091357;28;20485;-78
2021/12/04 07:29:11;;;;;;;0.68;0.30;;;;;;;;;;5082006;28;20032;-78
2021/12/04 07:31:58;;;;;;;1.40;0.50;;;;;;;;;;5089333;28;20070;-78
2021/12/04 07:34:45;;;;;;;1.67;0.68;;;;;;;;;;5087810;28;20395;-78
2021/12/04 07:37:31;;;;;;;1.98;0.60;;;;;;;;;;5077333;28;20029;-78
2021/12/04 07:40:18;;;;;;;1.05;0.40;;;;;;;;;;5060326;28;20033;-78
2021/12/04 07:43:05;;;;;;;1.35;0.50;;;;;;;;;;5084596;28;20497;-77
2021/12/04 07:45:51;;;;;;;0.90;0.40;;;;;;;;;;5090667;28;20035;-79
2021/12/04 07:48:38;;;;;;;0.75;0.47;;;;;;;;;;5080887;28;20403;-79
2021/12/04 07:51:25;;;;;;;0.65;0.50;;;;;;;;;;5080885;28;20038;-78
2021/12/04 07:54:12;;;;;;;0.93;0.73;;;;;;;;;;5091513;28;20044;-79
2021/12/04 07:56:59;;;;;;;0.63;0.50;;;;;;;;;;5084513;28;20032;-79
2021/12/04 07:59:45;;;;;;;2.90;0.68;;;;;;;;;;5087709;28;20086;-80
2021/12/04 08:02:32;;;;;;;1.40;0.60;;;;;;;;;;5076525;28;20028;-79
2021/12/04 08:05:19;;;;;;;1.23;0.60;;;;;;;;;;5092487;28;20471;-79
2021/12/04 08:08:06;;;;;;;1.15;0.60;;;;;;;;;;5089884;28;20035;-79
2021/12/04 08:10:53;;;;;;;2.15;0.52;;;;;;;;;;5089624;28;20051;-79
2021/12/04 08:13:39;;;;;;;1.00;0.52;;;;;;;;;;5090208;28;20502;-79
2021/12/04 08:16:26;;;;;;;0.90;0.50;;;;;;;;;;5077306;28;20059;-79
2021/12/04 08:19:13;;;;;;;0.60;0.50;;;;;;;;;;5079555;28;20426;-79
2021/12/04 08:22:00;;;;;;;0.60;0.47;;;;;;;;;;5083656;28;20483;-77
2021/12/04 08:24:47;;;;;;;1.42;0.52;;;;;;;;;;5073331;28;20032;-78
2021/12/04 08:27:36;;;;;;;0.90;0.57;;;;;;;;;;5090534;28;20199;-78
2021/12/04 08:30:25;;;;;;;1.63;0.70;;;;;;;;;;5095030;28;20050;-78
2021/12/04 08:33:13;;;;;;;1.85;0.70;;;;;;;;;;5093802;28;20534;-78
2021/12/04 08:36:01;;;;;;;1.00;0.60;;;;;;;;;;5080810;28;20032;-78
2021/12/04 08:38:48;;;;;;;1.92;0.60;;;;;;;;;;5077132;28;20024;-79
2021/12/04 08:41:34;;;;;;;1.83;0.93;;;;;;;;;;5092059;28;20032;-78
2021/12/04 08:44:21;;;;;;;2.15;0.90;;;;;;;;;;5093091;28;20047;-78
2021/12/04 08:47:08;;;;;;;2.67;0.73;;;;;;;;;;5066866;28;20046;-77
2021/12/04 08:49:55;;;;;;;1.38;0.73;;;;;;;;;;5084552;28;20047;-77
2021/12/04 08:52:42;;;;;;;1.90;0.80;;;;;;;;;;5107210;28;20043;-77
2021/12/04 08:55:29;;;;;;;1.83;0.73;;;;;;;;;;5114202;28;20022;-78
2021/12/04 08:58:16;;;;;;;2.55;0.98;;;;;;;;;;5115953;28;20039;-79
2021/12/04 09:01:05;;;;;;;1.45;0.80;;;;;;;;;;5110872;28;20050;-79
2021/12/04 09:03:54;;;;;;;3.58;1.30;;;;;;;;;;5107036;28;20016;-79
2021/12/04 09:06:41;;;;;;;2.25;0.73;;;;;;;;;;5115168;28;20022;-79
2021/12/04 09:09:28;;;;;;;2.17;0.90;;;;;;;;;;5114233;28;20024;-77
2021/12/04 09:12:15;;;;;;;1.83;0.90;;;;;;;;;;5103641;28;20106;-78
2021/12/04 09:15:03;;;;;;;1.45;0.70;;;;;;;;;;5111671;28;20032;-77
2021/12/04 09:17:50;;;;;;;1.27;0.82;;;;;;;;;;5090008;28;20091;-77
2021/12/04 09:20:37;;;;;;;1.38;0.75;;;;;;;;;;5083565;28;20028;-78
2021/12/04 09:23:31;;;;;;;1.50;0.70;;;;;;;;;;5084273;28;20033;-78
2021/12/04 09:26:38;;;;;;;1.15;0.70;;;;;;;;;;5089123;28;20032;-79
2021/12/04 10:03:02;;;;;;;1.60;1.00;;;;;;;;;;5086093;28;20028;-79
2021/12/04 10:06:29;;;;;;;2.25;0.75;;;;;;;;;;5088563;28;20039;-79
2021/12/04 10:33:51;;;;;;;1.95;0.70;;;;;;;;;;5093129;28;20043;-78
2021/12/04 10:36:40;;;;;;;1.50;0.80;;;;;;;;;;5092018;28;20043;-78
2021/12/04 10:39:26;;;;;;;1.20;0.70;;;;;;;;;;5077493;28;20039;-79
2021/12/04 10:42:17;;;;;;;1.83;0.80;;;;;;;;;;5081966;28;20036;-79
2021/12/04 10:45:04;;;;;;;1.38;0.70;;;;;;;;;;5081809;28;20039;-78
2021/12/04 10:47:56;;;;;;;1.42;0.68;;;;;;;;;;5093523;28;20028;-79
2021/12/04 10:50:51;;;;;;;0.98;0.70;;;;;;;;;;5093235;28;20044;-78
2021/12/04 10:53:48;;;;;;;1.05;0.60;;;;;;;;;;5073704;28;20692;-79
2021/12/04 11:02:54;;;;;;;1.38;0.80;;;;;;;;;;5085473;28;20056;-79
2021/12/04 11:39:51;;;;;;;1.35;0.80;;;;;;;;;;5099775;28;20032;-84
2021/12/04 11:45:29;;;;;;;1.77;0.60;;;;;;;;;;5091754;28;20032;-84
2021/12/04 11:48:16;;;;;;;1.23;0.60;;;;;;;;;;5091298;28;20024;-84
2021/12/04 11:51:04;;;;;;;1.90;0.80;;;;;;;;;;5076824;28;20028;-85
2021/12/04 11:53:52;;;;;;;1.73;0.70;;;;;;;;;;5078054;28;20036;-87
2021/12/04 11:56:39;;;;;;;1.08;0.65;;;;;;;;;;5097441;28;20034;-85
2021/12/04 11:59:27;;;;;;;1.75;0.60;;;;;;;;;;5090768;28;20399;-86
2021/12/04 12:02:21;;;;;;;2.40;0.80;;;;;;;;;;5094909;28;20031;-86
2021/12/04 12:05:12;;;;;;;2.13;0.77;;;;;;;;;;5087473;28;20039;-84
2021/12/04 12:07:59;;;;;;;;;;;;;;;;;;5077808;28;20036;-84
2021/12/04 12:10:49;;;;;;;1.33;0.57;;;;;;;;;;5075264;28;19923;-84
2021/12/04 12:13:45;;;;;;;1.33;0.80;;;;;;;;;;5092467;28;20067;-85
2021/12/04 12:16:35;;;;;;;2.45;0.73;;;;;;;;;;5090356;28;20045;-84
2021/12/04 12:19:25;;;;;;;1.45;0.80;;;;;;;;;;5087849;28;20051;-83
2021/12/04 12:22:30;;;;;;;2.40;0.70;;;;;;;;;;5089433;28;20032;-84
2021/12/04 12:25:24;;;;;;;2.42;0.93;;;;;;;;;;5089281;28;20069;-85
2021/12/04 12:37:27;;;;;;;2.30;0.70;;;;;;;;;;5092395;28;20024;-84
2021/12/04 12:40:14;;;;;;;1.15;0.70;;;;;;;;;;5091492;28;20039;-84
2021/12/04 12:43:16;;;;;;;1.40;0.77;;;;;;;;;;5087254;28;20072;-83
2021/12/04 12:46:03;;;;;;;1.33;0.80;;;;;;;;;;5076039;28;20033;-83
2021/12/04 12:48:51;;;;;;;1.45;1.15;;;;;;;;;;5090511;28;20506;-83
2021/12/04 12:51:38;;;;;;;0.93;0.63;;;;;;;;;;5082275;28;20036;-84
2021/12/04 12:54:32;;;;;;;2.50;0.70;;;;;;;;;;5058652;28;20037;-82
2021/12/04 12:57:23;;;;;;;1.33;0.77;;;;;;;;;;5086690;28;20414;-83
2021/12/04 13:12:39;;;;;;;1.13;0.57;;;;;;;;;;5088548;28;20089;-87
2021/12/04 13:15:35;;;;;;;0.65;0.50;;;;;;;;;;5084433;28;20038;-89
2021/12/04 13:18:23;;;;;;;1.25;0.60;;;;;;;;;;5062117;28;20025;-85
2021/12/04 13:21:10;;;;;;;1.25;0.70;;;;;;;;;;5081217;28;20028;-85
2021/12/04 13:23:58;;;;;;;1.92;0.80;;;;;;;;;;5088728;28;20028;-86
2021/12/04 13:26:48;;;;;;;1.77;0.75;;;;;;;;;;5088121;28;20034;-85
2021/12/04 13:29:37;;;;;;;1.42;0.70;;;;;;;;;;5083207;28;20029;-86
2021/12/04 13:32:32;;;;;;;1.60;0.82;;;;;;;;;;5087111;28;20047;-84
2021/12/04 13:35:23;;;;;;;1.35;0.70;;;;;;;;;;5085868;28;20036;-86
2021/12/04 13:38:10;;;;;;;2.23;0.70;;;;;;;;;;5083299;28;20020;-85
2021/12/04 13:40:56;;;;;;;1.98;0.70;;;;;;;;;;5089808;28;20499;-85
2021/12/04 13:43:50;;;;;;;1.58;0.57;;;;;;;;;;5084538;28;20038;-84
2021/12/04 13:46:48;;;;;;;1.30;0.60;;;;;;;;;;5078045;28;20025;-82
2021/12/04 13:49:37;;;;;;;0.77;0.50;;;;;;;;;;5090715;28;20395;-81
2021/12/04 13:52:25;;;;;;;1.20;0.70;;;;;;;;;;5078165;28;20040;-81
2021/12/04 13:55:13;;;;;;;1.98;0.68;;;;;;;;;;5077612;28;20043;-81
2021/12/04 13:58:02;;;;;;;1.80;0.90;;;;;;;;;;5088843;28;20031;-83
2021/12/04 14:00:49;;;;;;;1.27;0.60;;;;;;;;;;5071359;28;20028;-82
2021/12/04 14:03:38;;;;;;;1.75;0.77;;;;;;;;;;5089458;28;20031;-81
2021/12/04 14:06:25;;;;;;;2.53;1.00;;;;;;;;;;5086652;28;20024;-79
2021/12/04 14:09:11;;;;;;;1.40;0.70;;;;;;;;;;5088582;28;20035;-81
2021/12/04 14:11:58;;;;;;;1.70;0.70;;;;;;;;;;5088323;28;20024;-81
2021/12/04 14:14:45;;;;;;;1.02;0.60;;;;;;;;;;5089039;28;20475;-80
2021/12/04 14:17:32;;;;;;;2.53;0.88;;;;;;;;;;5074290;28;20098;-81
2021/12/04 14:20:20;;;;;;;1.73;0.60;;;;;;;;;;5078237;28;20048;-79
2021/12/04 14:23:07;;;;;;;2.20;0.75;;;;;;;;;;5083047;28;20040;-80
2021/12/04 14:25:54;;;;;;;1.35;0.70;;;;;;;;;;5085291;28;20027;-81
2021/12/04 14:28:43;;;;;;;1.33;0.75;;;;;;;;;;5086957;28;20031;-81
2021/12/04 14:31:32;;;;;;;1.58;0.55;;;;;;;;;;5084166;28;20040;-80
2021/12/04 14:34:19;;;;;;;1.92;0.60;;;;;;;;;;5080549;28;20063;-81
2021/12/04 14:37:14;;;;;;;2.00;0.90;;;;;;;;;;5090867;28;20027;-81
2021/12/04 14:40:01;;;;;;;1.17;0.60;;;;;;;;;;5088705;28;20032;-80
2021/12/04 14:42:49;;;;;;;1.17;0.50;;;;;;;;;;5086838;28;20043;-79
2021/12/04 14:45:37;;;;;;;2.65;1.02;;;;;;;;;;5099509;28;20047;-80
2021/12/04 14:48:28;;;;;;;1.13;0.60;;;;;;;;;;5099152;28;20107;-81
2021/12/04 14:51:17;;;;;;;1.13;0.70;;;;;;;;;;5077472;28;20036;-80
2021/12/04 14:54:03;;;;;;;0.98;0.60;;;;;;;;;;5091657;28;20033;-80
2021/12/04 14:56:50;;;;;;;1.90;0.73;;;;;;;;;;5084713;28;20028;-87
2021/12/04 14:59:37;;;;;;;1.67;0.68;;;;;;;;;;5104020;28;20040;-88
2021/12/04 15:02:23;;;;;;;1.00;0.70;;;;;;;;;;5091917;28;20034;-79
2021/12/04 15:05:10;;;;;;;1.63;0.73;;;;;;;;;;5087297;28;20395;-79
2021/12/04 15:08:01;;;;;;;1.95;0.80;;;;;;;;;;5090707;28;20021;-80
2021/12/04 15:10:55;;;;;;;1.20;0.80;;;;;;;;;;5092508;28;20031;-82
2021/12/04 15:13:50;;;;;;;2.22;0.75;;;;;;;;;;5090310;28;20044;-83
2021/12/04 15:16:41;;;;;;;1.95;0.70;;;;;;;;;;5086620;28;20035;-82
2021/12/04 15:19:38;;;;;;;;;;;;;;;;;;5091462;28;20047;-79
2021/12/04 15:22:33;;;;;;;4.07;0.70;;;;;;;;;;5076156;28;19942;-89
2021/12/04 15:25:22;;;;;;;3.45;0.80;;;;;;;;;;5088632;28;20024;-85
2021/12/04 15:28:19;;;;;;;2.50;0.80;;;;;;;;;;5085059;28;20033;-78
2021/12/04 15:31:05;;;;;;;3.40;0.90;;;;;;;;;;5085731;28;20420;-79
2021/12/04 15:33:55;;;;;;;1.58;0.65;;;;;;;;;;5068046;28;20399;-78
2021/12/04 15:36:46;;;;;;;3.40;0.70;;;;;;;;;;5073130;28;20475;-78
2021/12/04 15:39:36;;;;;;;4.95;1.00;;;;;;;;;;5085061;28;20032;-81
2021/12/04 15:54:39;;;;;;;2.65;0.63;;;;;;;;;;5075929;28;20052;-83
2021/12/04 15:57:26;;;;;;;4.38;0.80;;;;;;;;;;5079879;28;20025;-84
2021/12/04 16:00:17;;;;;;;1.95;0.75;;;;;;;;;;5063719;28;20476;-87
2021/12/04 16:03:06;;;;;;;1.70;0.70;;;;;;;;;;5090165;28;20388;-86
2021/12/04 16:05:56;;;;;;;2.15;0.80;;;;;;;;;;5084671;28;20427;-85
2021/12/04 16:08:43;;;;;;;3.15;1.05;;;;;;;;;;5084783;28;20025;-86
2021/12/04 16:11:35;;;;;;;1.85;0.80;;;;;;;;;;5088709;28;20036;-86
2021/12/04 16:14:28;;;;;;;5.28;1.00;;;;;;;;;;5067355;28;20049;-86
2021/12/04 16:17:15;;;;;;;3.50;1.00;;;;;;;;;;5087035;28;20032;-87
2021/12/04 16:20:09;;;;;;;2.35;0.90;;;;;;;;;;5088173;28;20038;-88
2021/12/04 16:22:58;;;;;;;3.00;1.30;;;;;;;;;;5085301;28;20036;-87
2021/12/04 16:25:45;;;;;;;8.07;1.40;;;;;;;;;;5092290;28;20032;-85
2021/12/04 16:31:52;;;;;;;15.98;2.55;;;;;;;;;;5087345;28;20526;-86
2021/12/04 16:37:47;;;;;;;4.55;1.40;;;;;;;;;;5094784;28;20409;-87
2021/12/04 16:40:38;;;;;;;3.60;2.22;;;;;;;;;;5078029;28;20380;-89
2021/12/04 16:43:32;;;;;;;6.82;2.45;;;;;;;;;;5086414;28;20039;-85
2021/12/04 16:46:20;;;;;;;8.32;3.10;;;;;;;;;;5088390;28;20024;-86
2021/12/04 16:49:08;;;;;;;6.40;3.28;;;;;;;;;;5089386;28;20336;-86
2021/12/04 16:55:22;;;;;;;6.00;3.10;;;;;;;;;;5085564;28;20051;-84
2021/12/04 16:58:12;;;;;;;5.55;3.28;;;;;;;;;;5087791;28;20037;-83
2021/12/04 17:01:01;;;;;;;8.27;3.33;;;;;;;;;;5072667;28;20046;-83
2021/12/04 17:03:48;;;;;;;6.45;3.00;;;;;;;;;;5089400;28;20024;-83
2021/12/04 17:06:35;;;;;;;7.80;3.00;;;;;;;;;;5088842;28;20028;-82
2021/12/04 17:09:23;;;;;;;8.20;3.75;;;;;;;;;;5086567;28;20491;-86
2021/12/04 17:12:10;;;;;;;5.68;2.80;;;;;;;;;;5072114;28;20062;-85
2021/12/04 17:14:56;;;;;;;4.88;2.53;;;;;;;;;;5089931;28;20040;-86
2021/12/04 17:17:45;;;;;;;3.83;2.40;;;;;;;;;;5094698;28;20039;-87
2021/12/04 17:20:33;;;;;;;5.10;2.40;;;;;;;;;;5095138;28;20032;-85
2021/12/04 17:23:22;;;;;;;5.60;2.90;;;;;;;;;;5098533;28;20040;-85
2021/12/04 17:26:09;;;;;;;6.22;2.65;;;;;;;;;;5099381;28;20028;-86
2021/12/04 17:28:55;;;;;;;4.38;1.85;;;;;;;;;;5097884;28;20028;-89
2021/12/04 17:31:43;;;;;;;4.22;1.85;;;;;;;;;;5086555;28;20036;-84
2021/12/04 17:34:30;;;;;;;3.72;2.05;;;;;;;;;;5100489;28;20058;-84
2021/12/04 17:37:17;;;;;;;5.80;2.03;;;;;;;;;;5095551;28;20013;-89
2021/12/04 17:40:07;;;;;;;3.80;2.13;;;;;;;;;;5076652;28;20032;-89
2021/12/04 17:42:54;;;;;;;5.22;2.03;;;;;;;;;;5094260;28;20032;-88
2021/12/04 17:45:42;;;;;;;3.38;1.33;;;;;;;;;;5098989;28;21134;-88
2021/12/04 17:48:29;;;;;;;3.45;1.52;;;;;;;;;;5096412;28;20415;-88
2021/12/04 17:51:19;;;;;;;4.75;1.67;;;;;;;;;;5080771;28;20033;-84
2021/12/04 17:54:07;;;;;;;5.05;1.80;;;;;;;;;;5092434;28;20044;-86
2021/12/04 17:56:56;;;;;;;4.85;2.00;;;;;;;;;;5081931;28;20085;-84
2021/12/04 17:59:48;;;;;;;3.22;1.80;;;;;;;;;;5081711;28;20031;-84
2021/12/04 18:02:34;;;;;;;3.28;1.70;;;;;;;;;;5085314;28;20032;-82
2021/12/04 18:05:24;;;;;;;4.53;1.77;;;;;;;;;;5079323;28;20020;-83
2021/12/04 18:08:13;;;;;;;4.10;1.98;;;;;;;;;;5078565;28;20043;-85
2021/12/04 18:11:00;;;;;;;4.30;1.92;;;;;;;;;;5089550;28;20032;-83
2021/12/04 18:13:49;;;;;;;3.97;1.77;;;;;;;;;;5075320;28;20032;-85
2021/12/04 18:16:39;;;;;;;3.42;1.77;;;;;;;;;;5071996;28;20024;-80
2021/12/04 18:19:28;;;;;;;6.15;1.95;;;;;;;;;;5099608;28;20028;-81
2021/12/04 18:22:15;;;;;;;3.20;1.50;;;;;;;;;;5090403;28;20200;-85
2021/12/04 18:25:08;;;;;;;2.67;1.50;;;;;;;;;;5091499;28;20029;-88
2021/12/04 18:27:56;;;;;;;3.70;1.40;;;;;;;;;;5092979;28;20042;-86
2021/12/04 18:30:44;;;;;;;3.20;1.70;;;;;;;;;;5074706;28;20070;-83
2021/12/04 18:33:31;;;;;;;3.42;1.60;;;;;;;;;;5069077;28;20043;-81
2021/12/04 18:36:18;;;;;;;2.90;1.30;;;;;;;;;;5086657;28;20050;-82
2021/12/04 18:39:06;;;;;;;3.10;1.35;;;;;;;;;;5071693;28;20410;-85
2021/12/04 18:41:54;;;;;;;2.40;1.40;;;;;;;;;;5093862;28;20039;-88
2021/12/04 18:44:41;;;;;;;3.10;1.38;;;;;;;;;;5096996;28;20036;-89
2021/12/04 18:47:27;;;;;;;4.95;2.13;;;;;;;;;;5089190;28;20036;-86
2021/12/04 18:50:17;;;;;;;2.80;1.50;;;;;;;;;;5093057;28;20054;-88
2021/12/04 18:53:04;;;;;;;3.85;1.40;;;;;;;;;;5092357;28;20107;-87
2021/12/04 18:55:51;;;;;;;3.22;1.40;;;;;;;;;;5074528;28;20052;-85
2021/12/04 18:58:40;;;;;;;2.45;1.20;;;;;;;;;;5077220;28;20043;-86
2021/12/04 19:01:27;;;;;;;2.70;1.35;;;;;;;;;;5088334;28;20455;-87
2021/12/04 19:04:14;;;;;;;2.97;1.30;;;;;;;;;;5076553;28;20039;-86
2021/12/04 19:07:03;;;;;;;2.92;1.40;;;;;;;;;;5087034;28;20043;-85
2021/12/04 19:09:49;;;;;;;3.00;1.30;;;;;;;;;;5085882;28;20031;-86
2021/12/04 19:12:39;;;;;;;2.97;1.20;;;;;;;;;;5093875;28;20036;-85
2021/12/04 19:15:25;;;;;;;4.45;1.27;;;;;;;;;;5071460;28;20047;-85
2021/12/04 19:18:15;;;;;;;2.80;1.30;;;;;;;;;;5087232;28;20022;-84
2021/12/04 19:21:02;;;;;;;2.67;0.95;;;;;;;;;;5086514;28;20503;-88
2021/12/04 19:23:50;;;;;;;3.13;1.10;;;;;;;;;;5085246;28;21059;-84
2021/12/04 19:26:36;;;;;;;3.22;1.08;;;;;;;;;;5088587;28;20031;-85
2021/12/04 19:29:25;;;;;;;2.30;1.15;;;;;;;;;;5091939;28;20039;-86
2021/12/04 19:32:22;;;;;;;3.92;1.20;;;;;;;;;;5090583;28;20415;-85
2021/12/04 19:35:52;;;;;;;2.90;1.60;;;;;;;;;;5090650;28;20040;-85
2021/12/04 19:51:00;;;;;;;1.35;0.70;;;;;;;;;;5086919;28;20039;-86
2021/12/04 19:54:01;;;;;;;2.83;1.10;;;;;;;;;;5088737;28;20039;-84
2021/12/04 19:57:03;;;;;;;2.40;1.30;;;;;;;;;;5088330;28;20028;-84
2021/12/04 19:59:53;;;;;;;2.03;1.00;;;;;;;;;;5087772;28;20441;-83
2021/12/04 20:02:50;;;;;;;2.42;1.25;;;;;;;;;;5091853;28;20037;-84
2021/12/04 20:09:10;;;;;;;1.23;0.60;;;;;;;;;;5095445;28;20048;-84
2021/12/04 20:15:07;;;;;;;4.30;1.30;;;;;;;;;;5102432;28;20046;-87
2021/12/04 20:17:57;;;;;;;4.15;0.90;;;;;;;;;;5103174;28;20146;-88
2021/12/04 20:20:50;;;;;;;2.17;1.00;;;;;;;;;;5102695;28;20032;-92
2021/12/04 20:23:40;;;;;;;2.28;0.90;;;;;;;;;;5105361;28;20036;-93
2021/12/04 20:26:41;;;;;;;1.67;0.90;;;;;;;;;;5106382;28;20046;-88
2021/12/04 20:29:46;;;;;;;6.78;1.20;;;;;;;;;;5104472;28;20028;-89
2021/12/04 20:32:56;;;;;;;2.42;0.93;;;;;;;;;;5080601;28;20051;-91
2021/12/04 21:09:40;;;;;;;2.17;0.75;;;;;;;;;;5087602;28;20039;-91
2021/12/04 21:38:48;;;;;;;1.85;0.60;;;;;;;;;;5092186;28;20034;-93